Temp: 18.0°C   Baro: 1015.6mb
  Wind: 11.0mph   Dir: W (275°)
  Rain: 9.6mm (0.0mm/hr)
  Solar: 629W/m2  Hum: 67%
 
Bath Spa Weather Historical Data
Daily Summary for August 15, 2019 Units:  Metric    English   Both
Next Day »
Daily Weekly Monthly Yearly Custom
  High: Low: Average:
Temperature: 19.3 °C 13.4 °C 16.6 °C
Dew Point: 14.5 °C 11.3 °C 12.8 °C
Humidity: 90% 62% 79%
Wind Speed: 38.6km/h 0.0km/h 11.3km/h
Wind Gust: 38.6km/h - -
Wind direction- - WNW
Pressure: 1017.2 hPa 1008.4 hPa -
Precipitation: 0.3 mm    
Historical Graphs
 
 
Tabular Data for August 15, 2019
Time Temperature Dew Point Pressure Wind direction Wind Speed Wind Gust Humidity Rainfall Rate (Hourly) solar
00:00 16.3 °C 14.5 °C 1008.4 hPa NW 11.1 km/h 19.3 km/h 89% 0.0 mm 0.00 W/m2
00:05 16.2 °C 14.4 °C 1008.4 hPa NW 19.5 km/h 22.5 km/h 89% 0.0 mm 0.00 W/m2
00:10 16.2 °C 14.2 °C 1008.4 hPa NW 16.3 km/h 27.4 km/h 88% 0.0 mm 0.00 W/m2
00:15 16.1 °C 14.1 °C 1008.4 hPa West 17.7 km/h 25.7 km/h 88% 0.0 mm 0.00 W/m2
00:20 16.1 °C 14.1 °C 1008.4 hPa NW 9.7 km/h 22.5 km/h 88% 0.0 mm 0.00 W/m2
00:25 16.1 °C 13.9 °C 1008.4 hPa West 9.7 km/h 24.1 km/h 87% 0.0 mm 0.00 W/m2
00:30 16.0 °C 13.8 °C 1008.4 hPa WNW 7.9 km/h 16.1 km/h 87% 0.0 mm 0.00 W/m2
00:35 15.9 °C 13.7 °C 1008.7 hPa WNW 9.7 km/h 12.9 km/h 87% 0.0 mm 0.00 W/m2
00:40 15.9 °C 13.9 °C 1008.7 hPa West 6.4 km/h 22.5 km/h 88% 0.0 mm 0.00 W/m2
00:45 15.8 °C 13.8 °C 1008.7 hPa West 11.1 km/h 16.1 km/h 88% 0.0 mm 0.00 W/m2
00:50 15.8 °C 13.8 °C 1008.7 hPa West 7.9 km/h 17.7 km/h 88% 0.0 mm 0.00 W/m2
00:55 15.8 °C 13.8 °C 1008.7 hPa West 7.9 km/h 16.1 km/h 88% 0.0 mm 0.00 W/m2
01:00 15.8 °C 13.8 °C 1008.7 hPa NNW 9.7 km/h 19.3 km/h 88% 0.0 mm 0.00 W/m2
01:05 15.8 °C 13.8 °C 1008.7 hPa West 14.3 km/h 14.5 km/h 88% 0.0 mm 0.00 W/m2
01:10 15.9 °C 13.9 °C 1008.7 hPa WNW 4.7 km/h 12.9 km/h 88% 0.0 mm 0.00 W/m2
01:15 15.9 °C 13.9 °C 1008.7 hPa WNW 7.9 km/h 14.5 km/h 88% 0.0 mm 0.00 W/m2
01:20 15.8 °C 13.8 °C 1008.7 hPa NW 3.2 km/h 11.3 km/h 88% 0.0 mm 0.00 W/m2
01:25 15.8 °C 13.8 °C 1008.7 hPa WNW 4.7 km/h 11.3 km/h 88% 0.0 mm 0.00 W/m2
01:30 15.8 °C 13.8 °C 1008.7 hPa WNW 3.2 km/h 12.9 km/h 88% 0.0 mm 0.00 W/m2
01:35 15.8 °C 13.8 °C 1008.7 hPa WNW 7.9 km/h 11.3 km/h 88% 0.0 mm 0.00 W/m2
01:40 15.8 °C 13.6 °C 1008.7 hPa West 6.4 km/h 6.4 km/h 87% 0.0 mm 0.00 W/m2
01:45 15.7 °C 13.5 °C 1008.7 hPa West 6.4 km/h 8.0 km/h 87% 0.0 mm 0.00 W/m2
01:50 15.7 °C 13.7 °C 1008.7 hPa West 3.2 km/h 11.3 km/h 88% 0.0 mm 0.00 W/m2
01:55 15.7 °C 13.7 °C 1009.0 hPa West 4.7 km/h 11.3 km/h 88% 0.0 mm 0.00 W/m2
02:00 15.7 °C 13.7 °C 1009.0 hPa West 6.4 km/h 14.5 km/h 88% 0.0 mm 0.00 W/m2
02:05 15.7 °C 13.7 °C 1009.0 hPa West 4.7 km/h 8.0 km/h 88% 0.0 mm 0.00 W/m2
02:10 15.7 °C 13.7 °C 1009.0 hPa West 4.7 km/h 11.3 km/h 88% 0.0 mm 0.00 W/m2
02:15 15.6 °C 13.6 °C 1009.0 hPa West 1.4 km/h 6.4 km/h 88% 0.0 mm 0.00 W/m2
02:20 15.5 °C 13.5 °C 1009.0 hPa West 7.9 km/h 11.3 km/h 88% 0.0 mm 0.00 W/m2
02:25 15.4 °C 13.4 °C 1009.0 hPa WNW 6.4 km/h 12.9 km/h 88% 0.0 mm 0.00 W/m2
02:30 15.3 °C 13.5 °C 1009.0 hPa WNW 6.4 km/h 8.0 km/h 89% 0.0 mm 0.00 W/m2
02:35 15.3 °C 13.5 °C 1009.0 hPa West 3.2 km/h 12.9 km/h 89% 0.0 mm 0.00 W/m2
02:40 15.2 °C 13.4 °C 1009.0 hPa WNW 4.7 km/h 11.3 km/h 89% 0.0 mm 0.00 W/m2
02:45 15.3 °C 13.5 °C 1009.0 hPa WNW 7.9 km/h 14.5 km/h 89% 0.0 mm 0.00 W/m2
02:50 15.4 °C 13.8 °C 1009.0 hPa West 4.7 km/h 16.1 km/h 90% 0.0 mm 0.00 W/m2
02:55 15.5 °C 13.9 °C 1009.0 hPa WNW 9.7 km/h 12.9 km/h 90% 0.0 mm 0.00 W/m2
03:00 15.5 °C 13.7 °C 1009.0 hPa West 4.7 km/h 14.5 km/h 89% 0.0 mm 0.00 W/m2
03:05 15.6 °C 13.8 °C 1009.0 hPa WNW 9.7 km/h 11.3 km/h 89% 0.0 mm 0.00 W/m2
03:10 15.6 °C 13.8 °C 1009.0 hPa West 1.4 km/h 9.7 km/h 89% 0.0 mm 0.00 W/m2
03:15 15.5 °C 13.7 °C 1009.0 hPa WNW 7.9 km/h 11.3 km/h 89% 0.0 mm 0.00 W/m2
03:20 15.5 °C 13.7 °C 1009.0 hPa West 4.7 km/h 8.0 km/h 89% 0.0 mm 0.00 W/m2
03:25 15.5 °C 13.7 °C 1009.0 hPa West 7.9 km/h 20.9 km/h 89% 0.0 mm 0.00 W/m2
03:30 15.5 °C 13.7 °C 1009.0 hPa WNW 14.3 km/h 17.7 km/h 89% 0.0 mm 0.00 W/m2
03:35 15.5 °C 13.7 °C 1009.0 hPa West 13.0 km/h 16.1 km/h 89% 0.0 mm 0.00 W/m2
03:40 15.5 °C 13.7 °C 1009.0 hPa West 6.4 km/h 16.1 km/h 89% 0.0 mm 0.00 W/m2
03:45 15.5 °C 13.7 °C 1009.0 hPa West 9.7 km/h 22.5 km/h 89% 0.0 mm 0.00 W/m2
03:50 15.5 °C 13.7 °C 1009.0 hPa NW 14.3 km/h 19.3 km/h 89% 0.0 mm 0.00 W/m2
03:55 15.5 °C 13.5 °C 1008.7 hPa WNW 7.9 km/h 14.5 km/h 88% 0.0 mm 0.00 W/m2
04:00 15.5 °C 13.5 °C 1008.7 hPa West 6.4 km/h 20.9 km/h 88% 0.0 mm 0.00 W/m2
04:05 15.5 °C 13.5 °C 1008.7 hPa WNW 7.9 km/h 16.1 km/h 88% 0.0 mm 0.00 W/m2
04:10 15.5 °C 13.5 °C 1009.0 hPa West 9.7 km/h 22.5 km/h 88% 0.0 mm 0.00 W/m2
04:15 15.4 °C 13.6 °C 1009.0 hPa West 19.5 km/h 30.6 km/h 89% 0.3 mm 0.00 W/m2
04:20 15.3 °C 13.5 °C 1009.0 hPa WSW 19.5 km/h 22.5 km/h 89% 0.3 mm 0.00 W/m2
04:25 15.3 °C 13.5 °C 1009.0 hPa West 7.9 km/h 25.7 km/h 89% 0.3 mm 0.00 W/m2
04:30 15.2 °C 13.6 °C 1008.7 hPa West 14.3 km/h 22.5 km/h 90% 0.3 mm 0.00 W/m2
04:35 15.2 °C 13.6 °C 1009.0 hPa WNW 9.7 km/h 22.5 km/h 90% 0.3 mm 0.00 W/m2
04:40 15.2 °C 13.6 °C 1009.0 hPa WNW 14.3 km/h 22.5 km/h 90% 0.3 mm 0.00 W/m2
04:45 15.2 °C 13.6 °C 1009.0 hPa WNW 9.7 km/h 20.9 km/h 90% 0.3 mm 0.00 W/m2
04:50 15.2 °C 13.6 °C 1008.7 hPa West 6.4 km/h 22.5 km/h 90% 0.3 mm 0.00 W/m2
04:55 15.2 °C 13.4 °C 1009.0 hPa West 7.9 km/h 17.7 km/h 89% 0.3 mm 0.00 W/m2
05:00 15.0 °C 13.2 °C 1009.0 hPa WNW 14.3 km/h 24.1 km/h 89% 0.3 mm 0.00 W/m2
05:05 15.0 °C 13.2 °C 1009.0 hPa WNW 11.1 km/h 14.5 km/h 89% 0.3 mm 0.00 W/m2
05:10 15.0 °C 13.2 °C 1009.0 hPa WSW 13.0 km/h 14.5 km/h 89% 0.3 mm 0.00 W/m2
05:15 15.0 °C 13.2 °C 1009.0 hPa WNW 13.0 km/h 16.1 km/h 89% 0.0 mm 0.00 W/m2
05:20 14.9 °C 13.1 °C 1009.0 hPa WNW 11.1 km/h 14.5 km/h 89% 0.0 mm 0.00 W/m2
05:25 15.0 °C 13.2 °C 1009.0 hPa West 7.9 km/h 14.5 km/h 89% 0.0 mm 0.00 W/m2
05:30 15.0 °C 13.2 °C 1009.0 hPa WNW 19.3 km/h 19.3 km/h 89% 0.0 mm 0.00 W/m2
05:35 15.2 °C 13.4 °C 1009.4 hPa WNW 9.7 km/h 16.1 km/h 89% 0.0 mm 0.00 W/m2
05:40 15.2 °C 13.4 °C 1009.4 hPa NW 6.4 km/h 14.5 km/h 89% 0.0 mm 0.00 W/m2
05:45 15.2 °C 13.2 °C 1009.4 hPa WNW 11.1 km/h 27.4 km/h 88% 0.0 mm 0.00 W/m2
05:50 15.1 °C 13.1 °C 1009.7 hPa West 16.3 km/h 22.5 km/h 88% 0.0 mm 0.00 W/m2
05:55 15.1 °C 13.1 °C 1009.7 hPa WNW 16.3 km/h 24.1 km/h 88% 0.0 mm 0.00 W/m2
06:00 15.0 °C 13.0 °C 1009.7 hPa WNW 7.9 km/h 19.3 km/h 88% 0.0 mm 5.00 W/m2
06:05 15.0 °C 13.0 °C 1009.7 hPa WNW 6.4 km/h 16.1 km/h 88% 0.0 mm 7.00 W/m2
06:10 14.9 °C 12.9 °C 1009.7 hPa NW 7.9 km/h 14.5 km/h 88% 0.0 mm 7.00 W/m2
06:15 15.0 °C 13.0 °C 1009.7 hPa NW 22.7 km/h 22.5 km/h 88% 0.0 mm 11.00 W/m2
06:20 15.1 °C 13.1 °C 1010.0 hPa WNW 14.3 km/h 24.1 km/h 88% 0.0 mm 12.00 W/m2
06:25 15.2 °C 13.0 °C 1010.0 hPa West 11.1 km/h 19.3 km/h 87% 0.0 mm 11.00 W/m2
06:30 15.2 °C 13.0 °C 1010.0 hPa WNW 9.7 km/h 24.1 km/h 87% 0.0 mm 14.00 W/m2
06:35 15.2 °C 12.9 °C 1010.0 hPa WNW 4.7 km/h 17.7 km/h 86% 0.0 mm 16.00 W/m2
06:40 15.2 °C 12.9 °C 1010.0 hPa West 20.9 km/h 20.9 km/h 86% 0.0 mm 21.00 W/m2
06:45 15.1 °C 12.8 °C 1010.0 hPa West 4.7 km/h 14.5 km/h 86% 0.0 mm 25.00 W/m2
06:50 15.2 °C 12.9 °C 1010.0 hPa West 6.4 km/h 11.3 km/h 86% 0.0 mm 37.00 W/m2
06:55 15.2 °C 12.9 °C 1010.4 hPa West 9.7 km/h 20.9 km/h 86% 0.0 mm 26.00 W/m2
07:00 15.2 °C 12.9 °C 1010.4 hPa West 11.1 km/h 19.3 km/h 86% 0.0 mm 44.00 W/m2
07:05 15.3 °C 12.8 °C 1010.4 hPa WNW 22.5 km/h 22.5 km/h 85% 0.0 mm 69.00 W/m2
07:10 15.4 °C 12.7 °C 1010.7 hPa WNW 13.0 km/h 14.5 km/h 84% 0.0 mm 88.00 W/m2
07:15 15.4 °C 12.5 °C 1010.7 hPa WNW 16.3 km/h 25.7 km/h 83% 0.0 mm 91.00 W/m2
07:20 15.5 °C 12.6 °C 1010.7 hPa WSW 7.9 km/h 20.9 km/h 83% 0.0 mm 77.00 W/m2
07:25 15.5 °C 12.4 °C 1010.7 hPa WNW 14.3 km/h 17.7 km/h 82% 0.0 mm 54.00 W/m2
07:30 15.4 °C 12.3 °C 1010.7 hPa NW 4.7 km/h 20.9 km/h 82% 0.0 mm 53.00 W/m2
07:35 15.4 °C 12.2 °C 1010.7 hPa West 11.1 km/h 16.1 km/h 81% 0.0 mm 51.00 W/m2
07:40 15.4 °C 12.2 °C 1010.7 hPa WSW 19.5 km/h 25.7 km/h 81% 0.0 mm 97.00 W/m2
07:45 15.6 °C 12.2 °C 1010.7 hPa WNW 20.9 km/h 25.7 km/h 80% 0.0 mm 114.00 W/m2
07:50 15.8 °C 12.2 °C 1010.7 hPa WNW 20.9 km/h 20.9 km/h 79% 0.0 mm 137.00 W/m2
07:55 15.9 °C 12.1 °C 1010.7 hPa West 19.5 km/h 25.7 km/h 78% 0.0 mm 176.00 W/m2
08:00 16.0 °C 12.2 °C 1011.1 hPa West 19.5 km/h 25.7 km/h 78% 0.0 mm 130.00 W/m2
08:05 15.9 °C 12.1 °C 1011.1 hPa WNW 29.0 km/h 29.0 km/h 78% 0.0 mm 156.00 W/m2
08:10 15.8 °C 12.0 °C 1011.1 hPa West 16.3 km/h 22.5 km/h 78% 0.0 mm 84.00 W/m2
08:15 15.7 °C 12.1 °C 1011.1 hPa WNW 6.4 km/h 25.7 km/h 79% 0.0 mm 169.00 W/m2
08:20 15.9 °C 12.3 °C 1011.4 hPa West 9.7 km/h 25.7 km/h 79% 0.0 mm 269.00 W/m2
08:25 16.1 °C 12.3 °C 1011.4 hPa NW 13.0 km/h 24.1 km/h 78% 0.0 mm 141.00 W/m2
08:30 16.2 °C 12.4 °C 1011.4 hPa WNW 9.7 km/h 25.7 km/h 78% 0.0 mm 199.00 W/m2
08:35 16.2 °C 12.4 °C 1011.4 hPa West 9.7 km/h 20.9 km/h 78% 0.0 mm 153.00 W/m2
08:40 16.0 °C 12.0 °C 1011.7 hPa WNW 24.1 km/h 24.1 km/h 77% 0.0 mm 165.00 W/m2
08:45 16.1 °C 12.3 °C 1011.4 hPa WNW 19.5 km/h 19.3 km/h 78% 0.0 mm 306.00 W/m2
08:50 16.2 °C 12.2 °C 1011.7 hPa WNW 7.9 km/h 19.3 km/h 77% 0.0 mm 338.00 W/m2
08:55 16.3 °C 12.3 °C 1011.7 hPa West 11.1 km/h 16.1 km/h 77% 0.0 mm 334.00 W/m2
09:00 16.3 °C 12.1 °C 1011.7 hPa West 11.1 km/h 27.4 km/h 76% 0.0 mm 350.00 W/m2
09:05 16.4 °C 12.0 °C 1011.7 hPa West 14.3 km/h 27.4 km/h 75% 0.0 mm 367.00 W/m2
09:10 16.5 °C 12.1 °C 1011.7 hPa NW 7.9 km/h 20.9 km/h 75% 0.0 mm 385.00 W/m2
09:15 16.6 °C 12.1 °C 1011.7 hPa WNW 11.1 km/h 27.4 km/h 75% 0.0 mm 397.00 W/m2
09:20 16.7 °C 12.0 °C 1011.7 hPa West 7.9 km/h 25.7 km/h 74% 0.0 mm 422.00 W/m2
09:25 16.7 °C 11.8 °C 1011.7 hPa NNW 17.7 km/h 29.0 km/h 73% 0.0 mm 461.00 W/m2
09:30 16.9 °C 12.0 °C 1012.1 hPa West 24.1 km/h 29.0 km/h 73% 0.0 mm 501.00 W/m2
09:35 16.9 °C 11.8 °C 1012.1 hPa NW 17.7 km/h 30.6 km/h 72% 0.0 mm 513.00 W/m2
09:40 17.0 °C 11.7 °C 1012.1 hPa WNW 19.5 km/h 27.4 km/h 71% 0.0 mm 526.00 W/m2
09:45 16.9 °C 11.6 °C 1012.1 hPa West 28.8 km/h 33.8 km/h 71% 0.0 mm 399.00 W/m2
09:50 17.1 °C 11.6 °C 1012.1 hPa West 17.7 km/h 27.4 km/h 70% 0.0 mm 615.00 W/m2
09:55 17.0 °C 11.7 °C 1012.1 hPa West 33.8 km/h 33.8 km/h 71% 0.0 mm 615.00 W/m2
10:00 17.0 °C 11.9 °C 1012.1 hPa NNW 14.3 km/h 27.4 km/h 72% 0.0 mm 622.00 W/m2
10:05 17.3 °C 12.0 °C 1012.4 hPa WNW 6.4 km/h 24.1 km/h 71% 0.0 mm 264.00 W/m2
10:10 17.0 °C 11.7 °C 1012.1 hPa WNW 17.7 km/h 27.4 km/h 71% 0.0 mm 561.00 W/m2
10:15 16.9 °C 11.6 °C 1012.4 hPa WNW 6.4 km/h 35.4 km/h 71% 0.0 mm 552.00 W/m2
10:20 17.0 °C 11.7 °C 1012.4 hPa West 4.7 km/h 32.2 km/h 71% 0.0 mm 555.00 W/m2
10:25 17.1 °C 11.8 °C 1012.4 hPa WNW 20.9 km/h 29.0 km/h 71% 0.0 mm 571.00 W/m2
10:30 17.4 °C 11.9 °C 1012.4 hPa West 9.7 km/h 27.4 km/h 70% 0.0 mm 619.00 W/m2
10:35 17.8 °C 12.5 °C 1012.4 hPa WNW 4.7 km/h 29.0 km/h 71% 0.0 mm 628.00 W/m2
10:40 17.7 °C 11.9 °C 1012.8 hPa West 20.9 km/h 24.1 km/h 69% 0.0 mm 668.00 W/m2
10:45 17.7 °C 11.9 °C 1012.8 hPa WNW 19.5 km/h 25.7 km/h 69% 0.0 mm 724.00 W/m2
10:50 17.7 °C 11.9 °C 1012.8 hPa WNW 27.4 km/h 29.0 km/h 69% 0.0 mm 719.00 W/m2
10:55 17.5 °C 11.7 °C 1012.8 hPa WNW 19.5 km/h 33.8 km/h 69% 0.0 mm 656.00 W/m2
11:00 17.6 °C 11.6 °C 1012.8 hPa WNW 20.9 km/h 27.4 km/h 68% 0.0 mm 643.00 W/m2
11:05 17.8 °C 11.8 °C 1012.8 hPa West 13.0 km/h 24.1 km/h 68% 0.0 mm 661.00 W/m2
11:10 18.1 °C 11.9 °C 1012.8 hPa WNW 17.7 km/h 30.6 km/h 67% 0.0 mm 673.00 W/m2
11:15 17.7 °C 11.5 °C 1012.8 hPa West 22.7 km/h 30.6 km/h 67% 0.0 mm 689.00 W/m2
11:20 17.8 °C 11.6 °C 1012.8 hPa West 27.4 km/h 30.6 km/h 67% 0.0 mm 761.00 W/m2
11:25 17.9 °C 11.9 °C 1012.8 hPa WSW 22.7 km/h 29.0 km/h 68% 0.0 mm 814.00 W/m2
11:30 18.0 °C 11.8 °C 1013.1 hPa WNW 19.5 km/h 25.7 km/h 67% 0.0 mm 754.00 W/m2
11:35 17.9 °C 11.5 °C 1013.1 hPa NW 20.9 km/h 22.5 km/h 66% 0.0 mm 206.00 W/m2
11:40 18.0 °C 11.6 °C 1013.1 hPa NW 9.7 km/h 22.5 km/h 66% 0.0 mm 517.00 W/m2
11:45 18.3 °C 11.6 °C 1013.4 hPa WNW 17.7 km/h 20.9 km/h 65% 0.0 mm 278.00 W/m2
11:50 18.0 °C 11.3 °C 1013.4 hPa WNW 9.7 km/h 25.7 km/h 65% 0.0 mm 826.00 W/m2
11:55 18.3 °C 11.6 °C 1013.4 hPa West 24.1 km/h 24.1 km/h 65% 0.0 mm 838.00 W/m2
12:00 18.2 °C 11.3 °C 1013.4 hPa West 11.1 km/h 30.6 km/h 64% 0.0 mm 299.00 W/m2
12:05 18.1 °C 12.3 °C 1013.4 hPa West 20.9 km/h 24.1 km/h 69% 0.0 mm 295.00 W/m2
12:10 18.0 °C 12.4 °C 1013.4 hPa WNW 7.9 km/h 14.5 km/h 70% 0.0 mm 889.00 W/m2
12:15 18.5 °C 12.7 °C 1013.4 hPa West 25.9 km/h 30.6 km/h 69% 0.0 mm 928.00 W/m2
12:20 18.6 °C 12.6 °C 1013.4 hPa West 25.9 km/h 33.8 km/h 68% 0.0 mm 863.00 W/m2
12:25 18.6 °C 12.8 °C 1013.4 hPa NNW 11.1 km/h 29.0 km/h 69% 0.0 mm 831.00 W/m2
12:30 18.7 °C 12.9 °C 1013.4 hPa WNW 9.7 km/h 29.0 km/h 69% 0.0 mm 800.00 W/m2
12:35 18.7 °C 12.9 °C 1013.8 hPa West 38.6 km/h 38.6 km/h 69% 0.0 mm 863.00 W/m2
12:40 18.7 °C 12.9 °C 1013.4 hPa WNW 16.3 km/h 30.6 km/h 69% 0.0 mm 373.00 W/m2
12:45 19.2 °C 12.9 °C 1013.8 hPa West 9.7 km/h 27.4 km/h 67% 0.0 mm 926.00 W/m2
12:50 19.0 °C 12.3 °C 1013.8 hPa West 20.9 km/h 29.0 km/h 65% 0.0 mm 909.00 W/m2
12:55 19.0 °C 12.5 °C 1013.8 hPa WSW 17.7 km/h 29.0 km/h 66% 0.0 mm 341.00 W/m2
13:00 19.2 °C 12.9 °C 1014.1 hPa NNW 13.0 km/h 22.5 km/h 67% 0.0 mm 872.00 W/m2
13:05 19.1 °C 12.4 °C 1014.1 hPa WNW 20.9 km/h 32.2 km/h 65% 0.0 mm 962.00 W/m2
13:10 18.9 °C 12.2 °C 1014.1 hPa West 11.1 km/h 25.7 km/h 65% 0.0 mm 260.00 W/m2
13:15 18.7 °C 12.4 °C 1014.1 hPa WNW 7.9 km/h 29.0 km/h 67% 0.0 mm 278.00 W/m2
13:20 18.8 °C 12.5 °C 1014.1 hPa NW 4.7 km/h 17.7 km/h 67% 0.0 mm 255.00 W/m2
13:25 19.2 °C 12.7 °C 1014.1 hPa NW 11.1 km/h 32.2 km/h 66% 0.0 mm 814.00 W/m2
13:30 19.2 °C 12.5 °C 1014.1 hPa WNW 11.1 km/h 19.3 km/h 65% 0.0 mm 819.00 W/m2
13:35 18.9 °C 11.5 °C 1014.1 hPa WNW 19.5 km/h 32.2 km/h 62% 0.0 mm 171.00 W/m2
13:40 18.8 °C 12.1 °C 1014.1 hPa West 17.7 km/h 30.6 km/h 65% 0.0 mm 800.00 W/m2
13:45 19.0 °C 11.8 °C 1014.4 hPa WNW 17.7 km/h 29.0 km/h 63% 0.0 mm 812.00 W/m2
13:50 19.2 °C 12.2 °C 1014.4 hPa WNW 14.3 km/h 27.4 km/h 64% 0.0 mm 835.00 W/m2
13:55 19.1 °C 12.1 °C 1014.4 hPa West 13.0 km/h 24.1 km/h 64% 0.0 mm 246.00 W/m2
14:00 18.8 °C 11.6 °C 1014.4 hPa NNW 19.5 km/h 32.2 km/h 63% 0.0 mm 847.00 W/m2
14:05 19.0 °C 12.0 °C 1014.4 hPa WNW 14.3 km/h 19.3 km/h 64% 0.0 mm 571.00 W/m2
14:10 19.3 °C 12.1 °C 1014.4 hPa West 19.5 km/h 20.9 km/h 63% 0.0 mm 571.00 W/m2
14:15 19.1 °C 12.4 °C 1014.4 hPa NW 11.1 km/h 25.7 km/h 65% 0.0 mm 343.00 W/m2
14:20 19.3 °C 13.0 °C 1014.4 hPa West 7.9 km/h 22.5 km/h 67% 0.0 mm 346.00 W/m2
14:25 19.1 °C 12.6 °C 1014.4 hPa West 11.1 km/h 27.4 km/h 66% 0.0 mm 253.00 W/m2
14:30 18.9 °C 12.4 °C 1014.4 hPa West 9.7 km/h 25.7 km/h 66% 0.0 mm 255.00 W/m2
14:35 19.0 °C 13.2 °C 1014.4 hPa West 13.0 km/h 22.5 km/h 69% 0.0 mm 362.00 W/m2
14:40 18.9 °C 13.1 °C 1014.4 hPa WNW 13.0 km/h 25.7 km/h 69% 0.0 mm 766.00 W/m2
14:45 18.8 °C 13.0 °C 1014.8 hPa West 19.5 km/h 25.7 km/h 69% 0.0 mm 851.00 W/m2
14:50 18.9 °C 13.1 °C 1014.4 hPa West 13.0 km/h 24.1 km/h 69% 0.0 mm 345.00 W/m2
14:55 18.9 °C 13.3 °C 1014.8 hPa WNW 16.3 km/h 24.1 km/h 70% 0.0 mm 656.00 W/m2
15:00 19.2 °C 13.4 °C 1014.8 hPa NW 13.0 km/h 25.7 km/h 69% 0.0 mm 682.00 W/m2
15:05 19.3 °C 13.0 °C 1014.4 hPa WNW 13.0 km/h 22.5 km/h 67% 0.0 mm 830.00 W/m2
15:10 19.2 °C 12.9 °C 1014.4 hPa West 19.5 km/h 24.1 km/h 67% 0.0 mm 255.00 W/m2
15:15 19.1 °C 12.8 °C 1014.4 hPa NW 11.1 km/h 22.5 km/h 67% 0.0 mm 285.00 W/m2
15:20 19.0 °C 13.0 °C 1014.8 hPa West 16.3 km/h 24.1 km/h 68% 0.0 mm 281.00 W/m2
15:25 18.8 °C 12.8 °C 1014.4 hPa West 17.7 km/h 25.7 km/h 68% 0.0 mm 464.00 W/m2
15:30 18.8 °C 13.2 °C 1014.4 hPa WSW 17.7 km/h 27.4 km/h 70% 0.0 mm 392.00 W/m2
15:35 18.7 °C 13.1 °C 1014.4 hPa West 17.7 km/h 33.8 km/h 70% 0.0 mm 455.00 W/m2
15:40 18.5 °C 12.9 °C 1014.8 hPa WSW 22.7 km/h 35.4 km/h 70% 0.0 mm 573.00 W/m2
15:45 18.8 °C 13.0 °C 1014.8 hPa West 11.1 km/h 33.8 km/h 69% 0.0 mm 635.00 W/m2
15:50 18.9 °C 13.1 °C 1014.8 hPa SW 17.7 km/h 29.0 km/h 69% 0.0 mm 404.00 W/m2
15:55 18.8 °C 13.0 °C 1014.8 hPa WNW 22.7 km/h 35.4 km/h 69% 0.0 mm 346.00 W/m2
16:00 18.5 °C 12.9 °C 1015.1 hPa West 9.7 km/h 27.4 km/h 70% 0.0 mm 434.00 W/m2
16:05 18.6 °C 13.2 °C 1015.1 hPa SW 17.7 km/h 22.5 km/h 71% 0.0 mm 376.00 W/m2
16:10 18.4 °C 13.0 °C 1015.1 hPa SW 19.5 km/h 27.4 km/h 71% 0.0 mm 336.00 W/m2
16:15 18.3 °C 13.2 °C 1015.1 hPa WNW 16.3 km/h 24.1 km/h 72% 0.0 mm 318.00 W/m2
16:20 18.0 °C 12.9 °C 1015.1 hPa NW 7.9 km/h 29.0 km/h 72% 0.0 mm 313.00 W/m2
16:25 17.9 °C 12.8 °C 1015.1 hPa WNW 9.7 km/h 25.7 km/h 72% 0.0 mm 292.00 W/m2
16:30 17.8 °C 12.7 °C 1015.5 hPa WNW 9.7 km/h 35.4 km/h 72% 0.0 mm 248.00 W/m2
16:35 17.7 °C 12.8 °C 1015.5 hPa West 7.9 km/h 24.1 km/h 73% 0.0 mm 244.00 W/m2
16:40 17.5 °C 12.6 °C 1015.5 hPa WNW 27.4 km/h 32.2 km/h 73% 0.0 mm 223.00 W/m2
16:45 17.5 °C 12.8 °C 1015.8 hPa West 13.0 km/h 20.9 km/h 74% 0.0 mm 178.00 W/m2
16:50 17.5 °C 12.8 °C 1015.8 hPa WSW 22.7 km/h 29.0 km/h 74% 0.0 mm 165.00 W/m2
16:55 17.4 °C 12.7 °C 1015.8 hPa West 20.9 km/h 20.9 km/h 74% 0.0 mm 213.00 W/m2
17:00 17.4 °C 12.7 °C 1015.8 hPa West 14.3 km/h 24.1 km/h 74% 0.0 mm 258.00 W/m2
17:05 17.5 °C 12.8 °C 1015.8 hPa West 14.3 km/h 17.7 km/h 74% 0.0 mm 257.00 W/m2
17:10 17.5 °C 12.8 °C 1015.8 hPa West 29.0 km/h 29.0 km/h 74% 0.0 mm 308.00 W/m2
17:15 17.4 °C 12.7 °C 1015.8 hPa West 14.3 km/h 25.7 km/h 74% 0.0 mm 272.00 W/m2
17:20 17.5 °C 12.8 °C 1016.1 hPa West 14.3 km/h 29.0 km/h 74% 0.0 mm 276.00 W/m2
17:25 17.5 °C 12.8 °C 1016.1 hPa WNW 6.4 km/h 35.4 km/h 74% 0.0 mm 241.00 W/m2
17:30 17.5 °C 12.8 °C 1016.1 hPa NW 13.0 km/h 20.9 km/h 74% 0.0 mm 237.00 W/m2
17:35 17.5 °C 12.8 °C 1016.1 hPa West 16.3 km/h 24.1 km/h 74% 0.0 mm 297.00 W/m2
17:40 17.7 °C 13.0 °C 1016.1 hPa WNW 9.7 km/h 37.0 km/h 74% 0.0 mm 396.00 W/m2
17:45 17.8 °C 13.1 °C 1016.1 hPa WNW 7.9 km/h 25.7 km/h 74% 0.0 mm 446.00 W/m2
17:50 17.9 °C 13.0 °C 1016.1 hPa WNW 13.0 km/h 24.1 km/h 73% 0.0 mm 387.00 W/m2
17:55 18.0 °C 13.1 °C 1016.1 hPa West 16.3 km/h 27.4 km/h 73% 0.0 mm 397.00 W/m2
18:00 18.2 °C 13.3 °C 1016.1 hPa West 13.0 km/h 24.1 km/h 73% 0.0 mm 360.00 W/m2
18:05 18.0 °C 13.1 °C 1016.1 hPa WNW 19.5 km/h 27.4 km/h 73% 0.0 mm 336.00 W/m2
18:10 18.0 °C 13.1 °C 1016.1 hPa West 13.0 km/h 29.0 km/h 73% 0.0 mm 313.00 W/m2
18:15 18.0 °C 13.1 °C 1016.1 hPa WNW 13.0 km/h 25.7 km/h 73% 0.0 mm 288.00 W/m2
18:20 18.0 °C 13.1 °C 1016.1 hPa West 14.3 km/h 20.9 km/h 73% 0.0 mm 265.00 W/m2
18:25 18.3 °C 13.4 °C 1016.1 hPa NW 6.4 km/h 19.3 km/h 73% 0.0 mm 272.00 W/m2
18:30 18.1 °C 13.2 °C 1016.1 hPa NW 19.5 km/h 22.5 km/h 73% 0.0 mm 255.00 W/m2
18:35 18.0 °C 13.1 °C 1016.1 hPa WNW 19.5 km/h 22.5 km/h 73% 0.0 mm 255.00 W/m2
18:40 18.1 °C 13.2 °C 1016.1 hPa WNW 11.1 km/h 19.3 km/h 73% 0.0 mm 236.00 W/m2
18:45 18.2 °C 13.3 °C 1016.1 hPa NW 17.7 km/h 19.3 km/h 73% 0.0 mm 225.00 W/m2
18:50 18.1 °C 13.2 °C 1016.1 hPa WNW 4.7 km/h 19.3 km/h 73% 0.0 mm 202.00 W/m2
18:55 18.0 °C 13.3 °C 1016.1 hPa West 14.3 km/h 20.9 km/h 74% 0.0 mm 188.00 W/m2
19:00 18.0 °C 13.3 °C 1016.1 hPa West 13.0 km/h 12.9 km/h 74% 0.0 mm 169.00 W/m2
19:05 17.9 °C 13.2 °C 1016.1 hPa WNW 13.0 km/h 19.3 km/h 74% 0.0 mm 153.00 W/m2
19:10 17.7 °C 13.0 °C 1016.1 hPa WSW 19.5 km/h 19.3 km/h 74% 0.0 mm 134.00 W/m2
19:15 17.6 °C 13.1 °C 1016.1 hPa WNW 9.7 km/h 22.5 km/h 75% 0.0 mm 118.00 W/m2
19:20 17.5 °C 13.0 °C 1016.1 hPa WNW 11.1 km/h 17.7 km/h 75% 0.0 mm 107.00 W/m2
19:25 17.4 °C 12.9 °C 1016.1 hPa West 9.7 km/h 20.9 km/h 75% 0.0 mm 88.00 W/m2
19:30 17.3 °C 12.8 °C 1016.1 hPa WNW 11.1 km/h 22.5 km/h 75% 0.0 mm 86.00 W/m2
19:35 17.3 °C 12.8 °C 1016.1 hPa WNW 7.9 km/h 20.9 km/h 75% 0.0 mm 76.00 W/m2
19:40 17.3 °C 12.8 °C 1016.1 hPa NNW 11.1 km/h 16.1 km/h 75% 0.0 mm 67.00 W/m2
19:45 17.2 °C 12.7 °C 1016.1 hPa WNW 6.4 km/h 20.9 km/h 75% 0.0 mm 46.00 W/m2
19:50 17.0 °C 12.7 °C 1016.1 hPa West 9.7 km/h 17.7 km/h 76% 0.0 mm 44.00 W/m2
19:55 16.9 °C 12.6 °C 1016.1 hPa West 4.7 km/h 17.7 km/h 76% 0.0 mm 35.00 W/m2
20:00 16.8 °C 12.7 °C 1016.1 hPa West 6.4 km/h 14.5 km/h 77% 0.0 mm 25.00 W/m2
20:05 16.7 °C 12.6 °C 1016.1 hPa WNW 14.3 km/h 17.7 km/h 77% 0.0 mm 21.00 W/m2
20:10 16.6 °C 12.7 °C 1016.1 hPa WNW 3.2 km/h 14.5 km/h 78% 0.0 mm 19.00 W/m2
20:15 16.5 °C 12.7 °C 1016.5 hPa WNW 4.7 km/h 9.7 km/h 78% 0.0 mm 14.00 W/m2
20:20 16.4 °C 12.7 °C 1016.5 hPa West 6.4 km/h 12.9 km/h 79% 0.0 mm 11.00 W/m2
20:25 16.3 °C 12.7 °C 1016.5 hPa WNW 11.1 km/h 12.9 km/h 79% 0.0 mm 7.00 W/m2
20:30 16.2 °C 12.7 °C 1016.8 hPa WNW 1.4 km/h 12.9 km/h 80% 0.0 mm 5.00 W/m2
20:35 16.0 °C 12.6 °C 1016.8 hPa WNW 6.4 km/h 9.7 km/h 80% 0.0 mm 0.00 W/m2
20:40 15.9 °C 12.6 °C 1016.8 hPa WNW 4.7 km/h 8.0 km/h 81% 0.0 mm 0.00 W/m2
20:45 15.8 °C 12.5 °C 1016.8 hPa WNW 6.4 km/h 6.4 km/h 81% 0.0 mm 0.00 W/m2
20:50 15.7 °C 12.6 °C 1016.8 hPa WNW 6.4 km/h 9.7 km/h 82% 0.0 mm 0.00 W/m2
20:55 15.5 °C 12.4 °C 1016.8 hPa WNW 1.4 km/h 4.8 km/h 82% 0.0 mm 0.00 W/m2
21:00 15.5 °C 12.6 °C 1016.8 hPa WNW 6.4 km/h 8.0 km/h 83% 0.0 mm 0.00 W/m2
21:05 15.4 °C 12.5 °C 1016.8 hPa WNW 1.4 km/h 6.4 km/h 83% 0.0 mm 0.00 W/m2
21:10 15.3 °C 12.6 °C 1016.8 hPa WNW 3.2 km/h 4.8 km/h 84% 0.0 mm 0.00 W/m2
21:15 15.2 °C 12.5 °C 1016.8 hPa WNW 3.2 km/h 8.0 km/h 84% 0.0 mm 0.00 W/m2
21:20 15.2 °C 12.5 °C 1016.8 hPa WNW 4.7 km/h 4.8 km/h 84% 0.0 mm 0.00 W/m2
21:25 15.1 °C 12.6 °C 1016.8 hPa Calm   1.6 km/h 85% 0.0 mm 0.00 W/m2
21:30 15.1 °C 12.6 °C 1016.8 hPa Calm   4.8 km/h 85% 0.0 mm 0.00 W/m2
21:35 15.0 °C 12.5 °C 1016.8 hPa Calm     85% 0.0 mm 0.00 W/m2
21:40 15.0 °C 12.5 °C 1016.8 hPa Calm   3.2 km/h 85% 0.0 mm 0.00 W/m2
21:45 15.0 °C 12.5 °C 1017.2 hPa Calm   3.2 km/h 85% 0.0 mm 0.00 W/m2
21:50 14.8 °C 12.5 °C 1017.2 hPa WNW 1.4 km/h 4.8 km/h 86% 0.0 mm 0.00 W/m2
21:55 14.8 °C 12.5 °C 1017.2 hPa WNW 3.2 km/h 4.8 km/h 86% 0.0 mm 0.00 W/m2
22:00 14.8 °C 12.5 °C 1017.2 hPa WNW 1.4 km/h 4.8 km/h 86% 0.0 mm 0.00 W/m2
22:05 14.7 °C 12.6 °C 1017.2 hPa WNW 1.4 km/h 3.2 km/h 87% 0.0 mm 0.00 W/m2
22:10 14.6 °C 12.5 °C 1016.8 hPa WNW 4.7 km/h 6.4 km/h 87% 0.0 mm 0.00 W/m2
22:15 14.5 °C 12.4 °C 1016.8 hPa WNW 1.4 km/h 4.8 km/h 87% 0.0 mm 0.00 W/m2
22:20 14.5 °C 12.4 °C 1016.8 hPa WNW 1.4 km/h 4.8 km/h 87% 0.0 mm 0.00 W/m2
22:25 14.5 °C 12.5 °C 1017.2 hPa Calm   1.6 km/h 88% 0.0 mm 0.00 W/m2
22:30 14.5 °C 12.5 °C 1017.2 hPa Calm     88% 0.0 mm 0.00 W/m2
22:35 14.5 °C 12.5 °C 1017.2 hPa Calm     88% 0.0 mm 0.00 W/m2
22:40 14.4 °C 12.4 °C 1017.2 hPa Calm     88% 0.0 mm 0.00 W/m2
22:45 14.3 °C 12.3 °C 1017.2 hPa Calm     88% 0.0 mm 0.00 W/m2
22:50 14.2 °C 12.2 °C 1017.2 hPa Calm     88% 0.0 mm 0.00 W/m2
22:55 14.1 °C 12.1 °C 1017.2 hPa Calm     88% 0.0 mm 0.00 W/m2
23:00 14.0 °C 12.0 °C 1017.2 hPa Calm     88% 0.0 mm 0.00 W/m2
23:05 13.9 °C 11.9 °C 1017.2 hPa Calm     88% 0.0 mm 0.00 W/m2
23:10 13.8 °C 11.8 °C 1017.2 hPa Calm     88% 0.0 mm 0.00 W/m2
23:15 13.8 °C 12.0 °C 1017.2 hPa Calm     89% 0.0 mm 0.00 W/m2
23:20 13.7 °C 11.9 °C 1017.2 hPa Calm     89% 0.0 mm 0.00 W/m2
23:25 13.6 °C 11.8 °C 1017.2 hPa Calm     89% 0.0 mm 0.00 W/m2
23:30 13.6 °C 11.8 °C 1017.2 hPa Calm     89% 0.0 mm 0.00 W/m2
23:35 13.5 °C 11.7 °C 1017.2 hPa Calm     89% 0.0 mm 0.00 W/m2
23:40 13.5 °C 11.9 °C 1017.2 hPa Calm     90% 0.0 mm 0.00 W/m2
23:45 13.4 °C 11.8 °C 1017.2 hPa Calm     90% 0.0 mm 0.00 W/m2
23:50 13.4 °C 11.8 °C 1017.2 hPa Calm     90% 0.0 mm 0.00 W/m2
23:55 13.4 °C 11.8 °C 1017.2 hPa Calm     90% 0.0 mm 0.00 W/m2